sensor_id;sensor_type;location;lat;lon;timestamp;temperature;humidity
18105;DHT22;9179;50.968;3.134;2023-08-06T00:00:57;16.30;99.90
18105;DHT22;9179;50.968;3.134;2023-08-06T00:03:24;16.30;99.90
18105;DHT22;9179;50.968;3.134;2023-08-06T00:05:51;16.10;99.90
18105;DHT22;9179;50.968;3.134;2023-08-06T00:08:17;16.10;99.90
18105;DHT22;9179;50.968;3.134;2023-08-06T00:10:46;16.00;99.90
18105;DHT22;9179;50.968;3.134;2023-08-06T00:13:15;16.00;99.90
18105;DHT22;9179;50.968;3.134;2023-08-06T00:15:42;16.00;99.90
18105;DHT22;9179;50.968;3.134;2023-08-06T00:18:09;16.00;99.90
18105;DHT22;9179;50.968;3.134;2023-08-06T00:20:38;16.00;99.90
18105;DHT22;9179;50.968;3.134;2023-08-06T00:23:06;16.10;99.90
18105;DHT22;9179;50.968;3.134;2023-08-06T00:25:32;16.10;99.90
18105;DHT22;9179;50.968;3.134;2023-08-06T00:27:59;16.10;99.90
18105;DHT22;9179;50.968;3.134;2023-08-06T00:30:28;16.10;99.90
18105;DHT22;9179;50.968;3.134;2023-08-06T00:32:54;16.20;99.90
18105;DHT22;9179;50.968;3.134;2023-08-06T00:35:21;16.40;99.90
18105;DHT22;9179;50.968;3.134;2023-08-06T00:37:48;16.50;99.90
18105;DHT22;9179;50.968;3.134;2023-08-06T00:40:15;16.50;99.90
18105;DHT22;9179;50.968;3.134;2023-08-06T00:42:42;16.50;99.90
18105;DHT22;9179;50.968;3.134;2023-08-06T00:45:10;16.70;99.90
18105;DHT22;9179;50.968;3.134;2023-08-06T00:47:38;16.70;99.90
18105;DHT22;9179;50.968;3.134;2023-08-06T00:50:07;16.70;99.90
18105;DHT22;9179;50.968;3.134;2023-08-06T00:52:35;16.70;99.90
18105;DHT22;9179;50.968;3.134;2023-08-06T00:55:02;16.80;99.90
18105;DHT22;9179;50.968;3.134;2023-08-06T00:57:29;16.80;99.90
18105;DHT22;9179;50.968;3.134;2023-08-06T00:59:56;16.90;99.90
18105;DHT22;9179;50.968;3.134;2023-08-06T01:02:23;16.90;99.90
18105;DHT22;9179;50.968;3.134;2023-08-06T01:04:52;17.00;99.90
18105;DHT22;9179;50.968;3.134;2023-08-06T01:07:25;16.90;99.90
18105;DHT22;9179;50.968;3.134;2023-08-06T01:10:15;16.90;99.90
18105;DHT22;9179;50.968;3.134;2023-08-06T01:12:48;17.00;99.90
18105;DHT22;9179;50.968;3.134;2023-08-06T01:15:21;16.90;99.90
18105;DHT22;9179;50.968;3.134;2023-08-06T01:17:48;16.90;99.90
18105;DHT22;9179;50.968;3.134;2023-08-06T01:20:17;16.90;99.90
18105;DHT22;9179;50.968;3.134;2023-08-06T01:22:46;16.90;99.90
18105;DHT22;9179;50.968;3.134;2023-08-06T01:25:15;16.80;99.90
18105;DHT22;9179;50.968;3.134;2023-08-06T01:27:46;16.80;99.90
18105;DHT22;9179;50.968;3.134;2023-08-06T01:30:17;16.80;99.90
18105;DHT22;9179;50.968;3.134;2023-08-06T01:32:49;16.70;99.90
18105;DHT22;9179;50.968;3.134;2023-08-06T01:35:19;16.70;99.90
18105;DHT22;9179;50.968;3.134;2023-08-06T01:37:49;16.70;99.90
18105;DHT22;9179;50.968;3.134;2023-08-06T01:40:16;16.70;99.90
18105;DHT22;9179;50.968;3.134;2023-08-06T01:42:42;16.70;99.90
18105;DHT22;9179;50.968;3.134;2023-08-06T01:45:10;16.70;99.90
18105;DHT22;9179;50.968;3.134;2023-08-06T01:47:37;16.70;99.90
18105;DHT22;9179;50.968;3.134;2023-08-06T01:50:04;16.70;99.90
18105;DHT22;9179;50.968;3.134;2023-08-06T01:52:31;16.70;99.90
18105;DHT22;9179;50.968;3.134;2023-08-06T01:55:00;16.60;99.90
18105;DHT22;9179;50.968;3.134;2023-08-06T01:57:27;16.50;99.90
18105;DHT22;9179;50.968;3.134;2023-08-06T01:59:53;16.40;99.90
18105;DHT22;9179;50.968;3.134;2023-08-06T02:02:20;16.30;99.90
18105;DHT22;9179;50.968;3.134;2023-08-06T02:04:47;16.20;99.90
18105;DHT22;9179;50.968;3.134;2023-08-06T02:07:14;16.10;99.90
18105;DHT22;9179;50.968;3.134;2023-08-06T02:09:41;16.10;99.90
18105;DHT22;9179;50.968;3.134;2023-08-06T02:12:09;16.10;99.90
18105;DHT22;9179;50.968;3.134;2023-08-06T02:14:36;15.90;99.90
18105;DHT22;9179;50.968;3.134;2023-08-06T02:17:03;15.80;99.90
18105;DHT22;9179;50.968;3.134;2023-08-06T02:19:30;15.70;99.90
18105;DHT22;9179;50.968;3.134;2023-08-06T02:21:57;15.70;99.90
18105;DHT22;9179;50.968;3.134;2023-08-06T02:24:24;15.70;99.90
18105;DHT22;9179;50.968;3.134;2023-08-06T02:26:50;15.80;99.90
18105;DHT22;9179;50.968;3.134;2023-08-06T02:29:22;15.80;99.90
18105;DHT22;9179;50.968;3.134;2023-08-06T02:31:49;15.70;99.90
18105;DHT22;9179;50.968;3.134;2023-08-06T02:34:16;15.60;99.90
18105;DHT22;9179;50.968;3.134;2023-08-06T02:36:42;15.60;99.90
18105;DHT22;9179;50.968;3.134;2023-08-06T02:39:09;15.50;99.90
18105;DHT22;9179;50.968;3.134;2023-08-06T02:41:36;15.40;99.90
18105;DHT22;9179;50.968;3.134;2023-08-06T02:44:03;15.50;99.90
18105;DHT22;9179;50.968;3.134;2023-08-06T02:46:32;15.50;99.90
18105;DHT22;9179;50.968;3.134;2023-08-06T02:48:58;15.50;99.90
18105;DHT22;9179;50.968;3.134;2023-08-06T02:51:25;15.40;99.90
18105;DHT22;9179;50.968;3.134;2023-08-06T02:53:52;15.40;99.90
18105;DHT22;9179;50.968;3.134;2023-08-06T02:56:19;15.50;99.90
18105;DHT22;9179;50.968;3.134;2023-08-06T02:58:46;15.50;99.90
18105;DHT22;9179;50.968;3.134;2023-08-06T03:01:14;15.60;99.90
18105;DHT22;9179;50.968;3.134;2023-08-06T03:03:42;15.70;99.90
18105;DHT22;9179;50.968;3.134;2023-08-06T03:06:09;15.80;99.90
18105;DHT22;9179;50.968;3.134;2023-08-06T03:08:36;15.80;99.90
18105;DHT22;9179;50.968;3.134;2023-08-06T03:11:03;15.90;99.90
18105;DHT22;9179;50.968;3.134;2023-08-06T03:13:30;15.90;99.90
18105;DHT22;9179;50.968;3.134;2023-08-06T03:15:58;16.00;99.90
18105;DHT22;9179;50.968;3.134;2023-08-06T03:18:25;16.00;99.90
18105;DHT22;9179;50.968;3.134;2023-08-06T03:20:54;16.00;99.90
18105;DHT22;9179;50.968;3.134;2023-08-06T03:23:22;16.00;99.90
18105;DHT22;9179;50.968;3.134;2023-08-06T03:25:49;16.10;99.90
18105;DHT22;9179;50.968;3.134;2023-08-06T03:28:16;16.10;99.90
18105;DHT22;9179;50.968;3.134;2023-08-06T03:30:43;16.20;99.90
18105;DHT22;9179;50.968;3.134;2023-08-06T03:33:10;16.20;99.90
18105;DHT22;9179;50.968;3.134;2023-08-06T03:35:37;16.10;99.90
18105;DHT22;9179;50.968;3.134;2023-08-06T03:38:05;16.20;99.90
18105;DHT22;9179;50.968;3.134;2023-08-06T03:40:32;16.10;99.90
18105;DHT22;9179;50.968;3.134;2023-08-06T03:43:01;16.10;99.90
18105;DHT22;9179;50.968;3.134;2023-08-06T03:45:28;16.10;99.90
18105;DHT22;9179;50.968;3.134;2023-08-06T03:47:55;16.10;99.90
18105;DHT22;9179;50.968;3.134;2023-08-06T03:50:21;16.20;99.90
18105;DHT22;9179;50.968;3.134;2023-08-06T03:52:48;16.30;99.90
18105;DHT22;9179;50.968;3.134;2023-08-06T03:55:17;16.30;99.90
18105;DHT22;9179;50.968;3.134;2023-08-06T03:57:43;16.30;99.90
18105;DHT22;9179;50.968;3.134;2023-08-06T04:00:11;16.40;99.90
18105;DHT22;9179;50.968;3.134;2023-08-06T04:02:38;16.40;99.90
18105;DHT22;9179;50.968;3.134;2023-08-06T04:05:05;16.40;99.90
18105;DHT22;9179;50.968;3.134;2023-08-06T04:07:32;16.50;99.90
18105;DHT22;9179;50.968;3.134;2023-08-06T04:10:00;16.50;99.90
18105;DHT22;9179;50.968;3.134;2023-08-06T04:12:30;16.40;99.90
18105;DHT22;9179;50.968;3.134;2023-08-06T04:14:58;16.40;99.90
18105;DHT22;9179;50.968;3.134;2023-08-06T04:17:25;16.30;99.90
18105;DHT22;9179;50.968;3.134;2023-08-06T04:19:53;16.20;99.90
18105;DHT22;9179;50.968;3.134;2023-08-06T04:22:21;16.30;99.90
18105;DHT22;9179;50.968;3.134;2023-08-06T04:24:48;16.20;99.90
18105;DHT22;9179;50.968;3.134;2023-08-06T04:27:15;16.30;99.90
18105;DHT22;9179;50.968;3.134;2023-08-06T04:29:44;16.30;99.90
18105;DHT22;9179;50.968;3.134;2023-08-06T04:32:12;16.40;99.90
18105;DHT22;9179;50.968;3.134;2023-08-06T04:34:39;16.30;99.90
18105;DHT22;9179;50.968;3.134;2023-08-06T04:37:05;16.20;99.90
18105;DHT22;9179;50.968;3.134;2023-08-06T04:39:31;16.10;99.90
18105;DHT22;9179;50.968;3.134;2023-08-06T04:41:58;16.20;99.90
18105;DHT22;9179;50.968;3.134;2023-08-06T04:44:25;16.20;99.90
18105;DHT22;9179;50.968;3.134;2023-08-06T04:46:53;16.20;99.90
18105;DHT22;9179;50.968;3.134;2023-08-06T04:49:21;16.20;99.90
18105;DHT22;9179;50.968;3.134;2023-08-06T04:51:48;16.10;99.90
18105;DHT22;9179;50.968;3.134;2023-08-06T04:54:15;16.20;99.90
18105;DHT22;9179;50.968;3.134;2023-08-06T04:56:42;16.20;99.90
18105;DHT22;9179;50.968;3.134;2023-08-06T04:59:08;16.30;99.90
18105;DHT22;9179;50.968;3.134;2023-08-06T05:01:35;16.40;99.90
18105;DHT22;9179;50.968;3.134;2023-08-06T05:04:04;16.30;99.90
18105;DHT22;9179;50.968;3.134;2023-08-06T05:06:30;16.30;99.90
18105;DHT22;9179;50.968;3.134;2023-08-06T05:08:57;16.40;99.90
18105;DHT22;9179;50.968;3.134;2023-08-06T05:11:24;16.50;99.90
18105;DHT22;9179;50.968;3.134;2023-08-06T05:13:51;16.60;99.90
18105;DHT22;9179;50.968;3.134;2023-08-06T05:16:18;16.80;99.90
18105;DHT22;9179;50.968;3.134;2023-08-06T05:18:45;16.80;99.90
18105;DHT22;9179;50.968;3.134;2023-08-06T05:21:13;16.80;99.90
18105;DHT22;9179;50.968;3.134;2023-08-06T05:23:41;17.00;99.90
18105;DHT22;9179;50.968;3.134;2023-08-06T05:26:09;16.90;99.90
18105;DHT22;9179;50.968;3.134;2023-08-06T05:28:35;16.80;99.90
18105;DHT22;9179;50.968;3.134;2023-08-06T05:31:05;16.60;99.90
18105;DHT22;9179;50.968;3.134;2023-08-06T05:33:32;16.60;99.90
18105;DHT22;9179;50.968;3.134;2023-08-06T05:35:59;16.70;99.90
18105;DHT22;9179;50.968;3.134;2023-08-06T05:38:29;16.70;99.90
18105;DHT22;9179;50.968;3.134;2023-08-06T05:40:56;16.80;99.90
18105;DHT22;9179;50.968;3.134;2023-08-06T05:43:23;16.90;99.90
18105;DHT22;9179;50.968;3.134;2023-08-06T05:45:50;16.90;99.90
18105;DHT22;9179;50.968;3.134;2023-08-06T05:48:17;16.70;99.90
18105;DHT22;9179;50.968;3.134;2023-08-06T05:50:44;16.50;99.90
18105;DHT22;9179;50.968;3.134;2023-08-06T05:53:10;16.60;99.90
18105;DHT22;9179;50.968;3.134;2023-08-06T05:55:40;16.60;99.90
18105;DHT22;9179;50.968;3.134;2023-08-06T05:58:07;16.70;99.90
18105;DHT22;9179;50.968;3.134;2023-08-06T06:00:34;16.80;99.90
18105;DHT22;9179;50.968;3.134;2023-08-06T06:03:00;16.90;99.90
18105;DHT22;9179;50.968;3.134;2023-08-06T06:05:28;16.90;99.90
18105;DHT22;9179;50.968;3.134;2023-08-06T06:07:55;17.00;99.90
18105;DHT22;9179;50.968;3.134;2023-08-06T06:10:21;17.00;99.90
18105;DHT22;9179;50.968;3.134;2023-08-06T06:12:50;16.80;99.90
18105;DHT22;9179;50.968;3.134;2023-08-06T06:15:17;16.70;99.90
18105;DHT22;9179;50.968;3.134;2023-08-06T06:17:43;16.70;99.90
18105;DHT22;9179;50.968;3.134;2023-08-06T06:20:10;16.60;99.90
18105;DHT22;9179;50.968;3.134;2023-08-06T06:22:37;16.60;99.90
18105;DHT22;9179;50.968;3.134;2023-08-06T06:25:05;16.60;99.90
18105;DHT22;9179;50.968;3.134;2023-08-06T06:27:32;16.80;99.90
18105;DHT22;9179;50.968;3.134;2023-08-06T06:30:00;16.70;99.90
18105;DHT22;9179;50.968;3.134;2023-08-06T06:32:28;16.70;99.90
18105;DHT22;9179;50.968;3.134;2023-08-06T06:34:54;16.70;99.90
18105;DHT22;9179;50.968;3.134;2023-08-06T06:37:21;16.70;99.90
18105;DHT22;9179;50.968;3.134;2023-08-06T06:39:48;16.60;99.90
18105;DHT22;9179;50.968;3.134;2023-08-06T06:42:15;16.70;99.90
18105;DHT22;9179;50.968;3.134;2023-08-06T06:44:42;16.90;99.90
18105;DHT22;9179;50.968;3.134;2023-08-06T06:47:10;17.00;99.90
18105;DHT22;9179;50.968;3.134;2023-08-06T06:49:37;17.20;99.90
18105;DHT22;9179;50.968;3.134;2023-08-06T06:52:05;17.30;99.90
18105;DHT22;9179;50.968;3.134;2023-08-06T06:54:32;17.30;99.90
18105;DHT22;9179;50.968;3.134;2023-08-06T06:56:58;17.30;99.90
18105;DHT22;9179;50.968;3.134;2023-08-06T06:59:25;17.70;99.90
18105;DHT22;9179;50.968;3.134;2023-08-06T07:01:52;17.60;99.90
18105;DHT22;9179;50.968;3.134;2023-08-06T07:04:21;17.80;99.90
18105;DHT22;9179;50.968;3.134;2023-08-06T07:06:48;17.80;99.90
18105;DHT22;9179;50.968;3.134;2023-08-06T07:09:15;17.70;99.90
18105;DHT22;9179;50.968;3.134;2023-08-06T07:11:41;17.40;99.90
18105;DHT22;9179;50.968;3.134;2023-08-06T07:14:09;17.40;99.90
18105;DHT22;9179;50.968;3.134;2023-08-06T07:16:36;17.40;99.90
18105;DHT22;9179;50.968;3.134;2023-08-06T07:19:03;17.50;99.90
18105;DHT22;9179;50.968;3.134;2023-08-06T07:21:32;17.50;99.90
18105;DHT22;9179;50.968;3.134;2023-08-06T07:23:59;17.40;99.90
18105;DHT22;9179;50.968;3.134;2023-08-06T07:26:26;17.60;99.90
18105;DHT22;9179;50.968;3.134;2023-08-06T07:28:53;17.90;99.90
18105;DHT22;9179;50.968;3.134;2023-08-06T07:31:20;18.00;99.90
18105;DHT22;9179;50.968;3.134;2023-08-06T07:33:47;18.10;99.90
18105;DHT22;9179;50.968;3.134;2023-08-06T07:36:14;18.00;99.90
18105;DHT22;9179;50.968;3.134;2023-08-06T07:38:42;17.60;99.90
18105;DHT22;9179;50.968;3.134;2023-08-06T07:41:09;17.70;99.90
18105;DHT22;9179;50.968;3.134;2023-08-06T07:43:36;18.00;99.90
18105;DHT22;9179;50.968;3.134;2023-08-06T07:46:03;18.10;99.90
18105;DHT22;9179;50.968;3.134;2023-08-06T07:48:31;18.10;99.90
18105;DHT22;9179;50.968;3.134;2023-08-06T07:50:58;18.10;99.90
18105;DHT22;9179;50.968;3.134;2023-08-06T07:53:25;17.90;99.90
18105;DHT22;9179;50.968;3.134;2023-08-06T07:55:56;18.00;99.90
18105;DHT22;9179;50.968;3.134;2023-08-06T07:58:24;18.40;99.90
18105;DHT22;9179;50.968;3.134;2023-08-06T08:00:52;18.60;99.90
18105;DHT22;9179;50.968;3.134;2023-08-06T08:03:19;17.90;99.90
18105;DHT22;9179;50.968;3.134;2023-08-06T08:05:46;17.80;99.90
18105;DHT22;9179;50.968;3.134;2023-08-06T08:08:14;18.10;99.90
18105;DHT22;9179;50.968;3.134;2023-08-06T08:10:42;18.20;99.90
18105;DHT22;9179;50.968;3.134;2023-08-06T08:13:10;18.40;99.90
18105;DHT22;9179;50.968;3.134;2023-08-06T08:15:43;18.50;99.90
18105;DHT22;9179;50.968;3.134;2023-08-06T08:18:10;18.10;99.90
18105;DHT22;9179;50.968;3.134;2023-08-06T08:20:37;17.70;99.90
18105;DHT22;9179;50.968;3.134;2023-08-06T08:23:04;17.90;99.90
18105;DHT22;9179;50.968;3.134;2023-08-06T08:25:31;18.30;99.90
18105;DHT22;9179;50.968;3.134;2023-08-06T08:27:59;18.20;99.90
18105;DHT22;9179;50.968;3.134;2023-08-06T08:30:27;18.10;99.90
18105;DHT22;9179;50.968;3.134;2023-08-06T08:32:54;18.20;99.90
18105;DHT22;9179;50.968;3.134;2023-08-06T08:35:21;18.60;99.90
18105;DHT22;9179;50.968;3.134;2023-08-06T08:37:48;18.50;99.90
18105;DHT22;9179;50.968;3.134;2023-08-06T08:40:16;18.50;99.90
18105;DHT22;9179;50.968;3.134;2023-08-06T08:42:43;18.60;99.90
18105;DHT22;9179;50.968;3.134;2023-08-06T08:45:12;18.90;99.90
18105;DHT22;9179;50.968;3.134;2023-08-06T08:47:42;18.30;99.90
18105;DHT22;9179;50.968;3.134;2023-08-06T08:50:10;17.70;99.90
18105;DHT22;9179;50.968;3.134;2023-08-06T08:52:39;17.90;99.90
18105;DHT22;9179;50.968;3.134;2023-08-06T08:55:07;17.00;99.90
18105;DHT22;9179;50.968;3.134;2023-08-06T08:57:34;17.00;99.90
18105;DHT22;9179;50.968;3.134;2023-08-06T09:00:02;17.60;99.90
18105;DHT22;9179;50.968;3.134;2023-08-06T09:02:29;18.30;99.90
18105;DHT22;9179;50.968;3.134;2023-08-06T09:05:00;19.10;99.90
18105;DHT22;9179;50.968;3.134;2023-08-06T09:07:32;19.30;99.90
18105;DHT22;9179;50.968;3.134;2023-08-06T09:10:02;19.30;99.90
18105;DHT22;9179;50.968;3.134;2023-08-06T09:12:31;19.20;99.90
18105;DHT22;9179;50.968;3.134;2023-08-06T09:14:58;19.10;99.90
18105;DHT22;9179;50.968;3.134;2023-08-06T09:17:25;18.80;99.90
18105;DHT22;9179;50.968;3.134;2023-08-06T09:19:54;18.60;99.90
18105;DHT22;9179;50.968;3.134;2023-08-06T09:22:22;18.00;99.90
18105;DHT22;9179;50.968;3.134;2023-08-06T09:24:49;17.50;99.90
18105;DHT22;9179;50.968;3.134;2023-08-06T09:27:17;17.90;99.90
18105;DHT22;9179;50.968;3.134;2023-08-06T09:29:46;18.70;99.90
18105;DHT22;9179;50.968;3.134;2023-08-06T09:32:14;19.10;99.90
18105;DHT22;9179;50.968;3.134;2023-08-06T09:34:42;20.20;99.90
18105;DHT22;9179;50.968;3.134;2023-08-06T09:37:10;20.20;99.90
18105;DHT22;9179;50.968;3.134;2023-08-06T09:39:39;19.10;99.90
18105;DHT22;9179;50.968;3.134;2023-08-06T09:42:07;18.90;99.90
18105;DHT22;9179;50.968;3.134;2023-08-06T09:44:34;19.00;99.90
18105;DHT22;9179;50.968;3.134;2023-08-06T09:47:03;18.90;99.90
18105;DHT22;9179;50.968;3.134;2023-08-06T09:49:41;19.00;99.90
18105;DHT22;9179;50.968;3.134;2023-08-06T09:52:11;20.50;99.90
18105;DHT22;9179;50.968;3.134;2023-08-06T09:54:39;21.40;99.90
18105;DHT22;9179;50.968;3.134;2023-08-06T09:57:06;20.80;99.90
18105;DHT22;9179;50.968;3.134;2023-08-06T09:59:34;19.70;99.90
18105;DHT22;9179;50.968;3.134;2023-08-06T10:02:03;19.40;99.90
18105;DHT22;9179;50.968;3.134;2023-08-06T10:04:33;20.30;99.90
18105;DHT22;9179;50.968;3.134;2023-08-06T10:07:00;20.90;99.90
18105;DHT22;9179;50.968;3.134;2023-08-06T10:09:27;20.90;99.90
18105;DHT22;9179;50.968;3.134;2023-08-06T10:11:57;20.40;99.90
18105;DHT22;9179;50.968;3.134;2023-08-06T10:14:26;19.50;99.90
18105;DHT22;9179;50.968;3.134;2023-08-06T10:16:57;19.60;99.90
18105;DHT22;9179;50.968;3.134;2023-08-06T10:19:25;19.70;99.90
18105;DHT22;9179;50.968;3.134;2023-08-06T10:22:13;19.70;99.90
18105;DHT22;9179;50.968;3.134;2023-08-06T10:24:51;19.20;99.90
18105;DHT22;9179;50.968;3.134;2023-08-06T10:27:28;17.60;99.90
18105;DHT22;9179;50.968;3.134;2023-08-06T10:29:55;18.00;99.90
18105;DHT22;9179;50.968;3.134;2023-08-06T10:32:48;19.00;99.90
18105;DHT22;9179;50.968;3.134;2023-08-06T10:35:31;19.80;99.90
18105;DHT22;9179;50.968;3.134;2023-08-06T10:37:59;19.50;99.90
18105;DHT22;9179;50.968;3.134;2023-08-06T10:40:26;19.10;99.90
18105;DHT22;9179;50.968;3.134;2023-08-06T10:42:58;19.20;99.90
18105;DHT22;9179;50.968;3.134;2023-08-06T10:45:25;19.30;99.90
18105;DHT22;9179;50.968;3.134;2023-08-06T10:47:54;19.50;99.90
18105;DHT22;9179;50.968;3.134;2023-08-06T10:50:22;19.60;99.90
18105;DHT22;9179;50.968;3.134;2023-08-06T10:52:49;18.90;99.90
18105;DHT22;9179;50.968;3.134;2023-08-06T10:55:23;18.30;99.90
18105;DHT22;9179;50.968;3.134;2023-08-06T10:57:50;18.40;99.90
18105;DHT22;9179;50.968;3.134;2023-08-06T11:00:19;18.90;99.90
18105;DHT22;9179;50.968;3.134;2023-08-06T11:02:47;19.50;99.90
18105;DHT22;9179;50.968;3.134;2023-08-06T11:05:15;20.10;99.90
18105;DHT22;9179;50.968;3.134;2023-08-06T11:07:42;20.00;99.90
18105;DHT22;9179;50.968;3.134;2023-08-06T11:10:11;19.40;99.90
18105;DHT22;9179;50.968;3.134;2023-08-06T11:12:38;18.60;99.90
18105;DHT22;9179;50.968;3.134;2023-08-06T11:15:07;19.80;99.90
18105;DHT22;9179;50.968;3.134;2023-08-06T11:17:35;19.90;99.90
18105;DHT22;9179;50.968;3.134;2023-08-06T11:20:03;18.80;99.90
18105;DHT22;9179;50.968;3.134;2023-08-06T11:22:31;18.60;99.90
18105;DHT22;9179;50.968;3.134;2023-08-06T11:24:58;19.40;99.90
18105;DHT22;9179;50.968;3.134;2023-08-06T11:27:26;20.70;99.90
18105;DHT22;9179;50.968;3.134;2023-08-06T11:29:54;22.10;99.90
18105;DHT22;9179;50.968;3.134;2023-08-06T11:32:21;22.00;99.90
18105;DHT22;9179;50.968;3.134;2023-08-06T11:34:49;21.70;99.90
18105;DHT22;9179;50.968;3.134;2023-08-06T11:37:21;22.70;99.90
18105;DHT22;9179;50.968;3.134;2023-08-06T11:39:49;22.60;99.90
18105;DHT22;9179;50.968;3.134;2023-08-06T11:42:17;22.10;99.90
18105;DHT22;9179;50.968;3.134;2023-08-06T11:44:43;21.40;99.90
18105;DHT22;9179;50.968;3.134;2023-08-06T11:47:14;21.40;99.90
18105;DHT22;9179;50.968;3.134;2023-08-06T11:49:42;21.70;99.90
18105;DHT22;9179;50.968;3.134;2023-08-06T11:52:14;21.60;99.90
18105;DHT22;9179;50.968;3.134;2023-08-06T11:54:42;21.30;99.90
18105;DHT22;9179;50.968;3.134;2023-08-06T11:57:09;21.70;99.90
18105;DHT22;9179;50.968;3.134;2023-08-06T11:59:37;21.60;99.90
18105;DHT22;9179;50.968;3.134;2023-08-06T12:02:05;21.20;99.90
18105;DHT22;9179;50.968;3.134;2023-08-06T12:04:58;20.20;99.90
18105;DHT22;9179;50.968;3.134;2023-08-06T12:07:31;17.50;99.90
18105;DHT22;9179;50.968;3.134;2023-08-06T12:09:58;16.60;99.90
18105;DHT22;9179;50.968;3.134;2023-08-06T12:12:25;16.60;99.90
18105;DHT22;9179;50.968;3.134;2023-08-06T12:14:52;17.10;99.90
18105;DHT22;9179;50.968;3.134;2023-08-06T12:17:19;18.10;99.90
18105;DHT22;9179;50.968;3.134;2023-08-06T12:19:46;19.20;99.90
18105;DHT22;9179;50.968;3.134;2023-08-06T12:22:14;20.30;99.90
18105;DHT22;9179;50.968;3.134;2023-08-06T12:24:43;21.50;99.90
18105;DHT22;9179;50.968;3.134;2023-08-06T12:27:10;22.20;99.90
18105;DHT22;9179;50.968;3.134;2023-08-06T12:29:39;22.40;99.90
18105;DHT22;9179;50.968;3.134;2023-08-06T12:32:07;22.10;99.90
18105;DHT22;9179;50.968;3.134;2023-08-06T12:34:34;22.60;99.90
18105;DHT22;9179;50.968;3.134;2023-08-06T12:37:01;22.60;99.90
18105;DHT22;9179;50.968;3.134;2023-08-06T12:39:28;21.90;99.90
18105;DHT22;9179;50.968;3.134;2023-08-06T12:41:58;20.80;99.90
18105;DHT22;9179;50.968;3.134;2023-08-06T12:44:25;19.50;99.90
18105;DHT22;9179;50.968;3.134;2023-08-06T12:46:52;18.00;99.90
18105;DHT22;9179;50.968;3.134;2023-08-06T12:49:19;17.40;99.90
18105;DHT22;9179;50.968;3.134;2023-08-06T12:51:47;17.80;99.90
18105;DHT22;9179;50.968;3.134;2023-08-06T12:54:16;18.50;99.90
18105;DHT22;9179;50.968;3.134;2023-08-06T12:56:42;19.40;99.90
18105;DHT22;9179;50.968;3.134;2023-08-06T12:59:11;19.90;99.90
18105;DHT22;9179;50.968;3.134;2023-08-06T13:01:38;20.20;99.90
18105;DHT22;9179;50.968;3.134;2023-08-06T13:04:05;20.50;99.90
18105;DHT22;9179;50.968;3.134;2023-08-06T13:06:32;21.10;99.90
18105;DHT22;9179;50.968;3.134;2023-08-06T13:09:02;21.70;99.90
18105;DHT22;9179;50.968;3.134;2023-08-06T13:11:29;22.20;99.90
18105;DHT22;9179;50.968;3.134;2023-08-06T13:13:59;22.50;99.90
18105;DHT22;9179;50.968;3.134;2023-08-06T13:16:27;22.80;99.90
18105;DHT22;9179;50.968;3.134;2023-08-06T13:18:54;23.00;99.90
18105;DHT22;9179;50.968;3.134;2023-08-06T13:21:21;22.70;99.90
18105;DHT22;9179;50.968;3.134;2023-08-06T13:23:48;22.10;99.90
18105;DHT22;9179;50.968;3.134;2023-08-06T13:26:15;21.50;99.90
18105;DHT22;9179;50.968;3.134;2023-08-06T13:28:42;21.40;99.90
18105;DHT22;9179;50.968;3.134;2023-08-06T13:31:10;22.10;99.90
18105;DHT22;9179;50.968;3.134;2023-08-06T13:33:38;22.70;99.90
18105;DHT22;9179;50.968;3.134;2023-08-06T13:36:05;23.20;99.90
18105;DHT22;9179;50.968;3.134;2023-08-06T13:38:31;23.30;99.90
18105;DHT22;9179;50.968;3.134;2023-08-06T13:40:58;23.30;99.90
18105;DHT22;9179;50.968;3.134;2023-08-06T13:43:25;23.20;99.90
18105;DHT22;9179;50.968;3.134;2023-08-06T13:45:53;23.40;99.90
18105;DHT22;9179;50.968;3.134;2023-08-06T13:48:20;23.50;99.90
18105;DHT22;9179;50.968;3.134;2023-08-06T13:50:48;23.70;99.90
18105;DHT22;9179;50.968;3.134;2023-08-06T13:53:15;23.90;99.90
18105;DHT22;9179;50.968;3.134;2023-08-06T13:55:42;24.10;99.90
18105;DHT22;9179;50.968;3.134;2023-08-06T13:58:08;23.70;99.90
18105;DHT22;9179;50.968;3.134;2023-08-06T14:00:35;24.90;99.90
18105;DHT22;9179;50.968;3.134;2023-08-06T14:03:02;25.80;99.90
18105;DHT22;9179;50.968;3.134;2023-08-06T14:05:29;26.20;99.90
18105;DHT22;9179;50.968;3.134;2023-08-06T14:07:58;26.80;99.90
18105;DHT22;9179;50.968;3.134;2023-08-06T14:10:24;27.20;99.90
18105;DHT22;9179;50.968;3.134;2023-08-06T14:12:51;28.70;99.90
18105;DHT22;9179;50.968;3.134;2023-08-06T14:15:18;27.40;99.20
18105;DHT22;9179;50.968;3.134;2023-08-06T14:17:45;25.80;98.60
18105;DHT22;9179;50.968;3.134;2023-08-06T14:20:18;25.30;99.60
18105;DHT22;9179;50.968;3.134;2023-08-06T14:22:48;26.20;99.50
18105;DHT22;9179;50.968;3.134;2023-08-06T14:25:17;25.30;99.10
18105;DHT22;9179;50.968;3.134;2023-08-06T14:27:44;24.60;99.90
18105;DHT22;9179;50.968;3.134;2023-08-06T14:30:11;24.10;99.90
18105;DHT22;9179;50.968;3.134;2023-08-06T14:32:38;23.90;99.90
18105;DHT22;9179;50.968;3.134;2023-08-06T14:35:06;23.30;99.90
18105;DHT22;9179;50.968;3.134;2023-08-06T14:37:33;23.20;99.90
18105;DHT22;9179;50.968;3.134;2023-08-06T14:39:59;23.70;99.90
18105;DHT22;9179;50.968;3.134;2023-08-06T14:42:28;25.30;99.90
18105;DHT22;9179;50.968;3.134;2023-08-06T14:44:54;29.10;97.50
18105;DHT22;9179;50.968;3.134;2023-08-06T14:47:22;31.20;92.80
18105;DHT22;9179;50.968;3.134;2023-08-06T14:49:49;31.60;88.60
18105;DHT22;9179;50.968;3.134;2023-08-06T14:52:16;29.20;87.60
18105;DHT22;9179;50.968;3.134;2023-08-06T14:54:43;28.40;88.70
18105;DHT22;9179;50.968;3.134;2023-08-06T14:57:10;27.90;89.30
18105;DHT22;9179;50.968;3.134;2023-08-06T14:59:40;25.90;91.10
18105;DHT22;9179;50.968;3.134;2023-08-06T15:02:07;24.90;94.20
18105;DHT22;9179;50.968;3.134;2023-08-06T15:04:34;23.90;95.90
18105;DHT22;9179;50.968;3.134;2023-08-06T15:07:00;24.30;94.80
18105;DHT22;9179;50.968;3.134;2023-08-06T15:09:27;23.30;96.40
18105;DHT22;9179;50.968;3.134;2023-08-06T15:11:54;23.90;96.70
18105;DHT22;9179;50.968;3.134;2023-08-06T15:14:21;27.40;94.50
18105;DHT22;9179;50.968;3.134;2023-08-06T15:16:49;26.30;94.20
18105;DHT22;9179;50.968;3.134;2023-08-06T15:19:17;24.90;96.00
18105;DHT22;9179;50.968;3.134;2023-08-06T15:21:44;26.70;95.60
18105;DHT22;9179;50.968;3.134;2023-08-06T15:24:10;30.50;89.50
18105;DHT22;9179;50.968;3.134;2023-08-06T15:26:37;32.00;86.10
18105;DHT22;9179;50.968;3.134;2023-08-06T15:29:04;33.60;82.20
18105;DHT22;9179;50.968;3.134;2023-08-06T15:31:36;34.20;75.40
18105;DHT22;9179;50.968;3.134;2023-08-06T15:34:05;30.80;79.80
18105;DHT22;9179;50.968;3.134;2023-08-06T15:36:32;27.80;84.90
18105;DHT22;9179;50.968;3.134;2023-08-06T15:39:00;25.70;90.80
18105;DHT22;9179;50.968;3.134;2023-08-06T15:41:26;24.20;93.80
18105;DHT22;9179;50.968;3.134;2023-08-06T15:43:53;23.40;96.00
18105;DHT22;9179;50.968;3.134;2023-08-06T15:46:20;23.30;97.10
18105;DHT22;9179;50.968;3.134;2023-08-06T15:48:47;26.60;93.80